Townsend, Virginia
Current Conditions -  °F | °C
As of 11:03 AM on Wednesday 22 Oct 2014 (Local Time) from KLFI Reporting Station
Overcast Overcast  
Wind Chill: 57°   Ceiling: 1600
Heat Index: 57°   Visibility: 10mi
Dew Point: 55°   Wind: 16mph
Humidity: 94%   Direction: 310°NW
Pressure: 29.84"   Gusts: NA
Location:  37.18°N, 75.96°W
Report Text: KLFI 221503Z AUTO 31014KT 10SM BKN016 OVC023 14/13 A2984 RMK AO2 BKN V OVC $
Loading
Personal Weather Stations






























Interactive Weather Map
Tropical Storm Tracking
New forecast layout! Learn more

10-Day Weather Forecast

Advertisements
Track Severe Weather on mobile